Alligator, Mississippi
Current Conditions -  °F | °C
As of 5:55 PM on Friday 21 Nov 2014 (Local Time) from KCKM Reporting Station
Broken Clouds Broken Clouds  
Wind Chill: 55°   Ceiling: 11000
Heat Index: 55°   Visibility: 9mi
Dew Point: 54°   Wind: 0mph
Humidity: 94%   Direction: NA
Pressure: 30.27"   Gusts: NA
Location:  34.09°N, 90.72°W
Report Text: KCKM 212355Z AUTO 00000KT 9SM BKN110 13/12 A3027 RMK AO1
Loading
Personal Weather Stations






























Interactive Weather Map New forecast layout! Learn more

10-Day Weather Forecast

Advertisements
Track Severe Weather on mobile